TMG6606 WIII-WIMN
Flight info
| Callsign | TMG6606 |
|---|---|
| Flight time | 1h 41m |
| Altitude | 38000 |
| Route | GOMEL T10 AKPER |
| Aircraft | B738/M-SDFGHIRWY/EB2 |
Departure
| Time | 2026-05-07 02:47 |
|---|---|
| Airport | Soekarno-Hatta International Airport (WIII) |
Arrival
| Time | 2026-05-07 04:28 |
|---|---|
| Airport | Silangit Airport (WIMN) |
| Time | Latitude | Longitude | Altitude | Speed | Heading |
|---|---|---|---|---|---|
| 2026-05-07 02:25 | -6.11794 | 106.66326 | 26 ft | 0 kts | 166° |
| 2026-05-07 02:39 | -6.11789 | 106.66325 | 37 ft | 2 kts | 166° |
| 2026-05-07 02:40 | -6.11773 | 106.66321 | 37 ft | 2 kts | 166° |
| 2026-05-07 02:40 | -6.11757 | 106.66317 | 37 ft | 2 kts | 166° |
| 2026-05-07 02:40 | -6.11741 | 106.66313 | 36 ft | 2 kts | 153° |
| 2026-05-07 02:40 | -6.11729 | 106.66303 | 35 ft | 2 kts | 93° |
| 2026-05-07 02:41 | -6.11729 | 106.66294 | 33 ft | 1 kts | 71° |
| 2026-05-07 02:41 | -6.11730 | 106.66293 | 33 ft | 0 kts | 71° |
| 2026-05-07 02:42 | -6.11729 | 106.66294 | 33 ft | 2 kts | 70° |
| 2026-05-07 02:42 | -6.11711 | 106.66328 | 37 ft | 9 kts | 56° |
| 2026-05-07 02:42 | -6.11666 | 106.66390 | 37 ft | 12 kts | 44° |
| 2026-05-07 02:43 | -6.11592 | 106.66391 | 37 ft | 11 kts | 340° |
| 2026-05-07 02:43 | -6.11518 | 106.66362 | 37 ft | 11 kts | 337° |
| 2026-05-07 02:43 | -6.11448 | 106.66332 | 37 ft | 11 kts | 337° |
| 2026-05-07 02:43 | -6.11402 | 106.66314 | 37 ft | 11 kts | 340° |
| 2026-05-07 02:44 | -6.11333 | 106.66313 | 36 ft | 10 kts | 38° |
| 2026-05-07 02:44 | -6.11300 | 106.66376 | 38 ft | 10 kts | 65° |
| 2026-05-07 02:44 | -6.11273 | 106.66441 | 38 ft | 11 kts | 69° |
| 2026-05-07 02:44 | -6.11236 | 106.66537 | 38 ft | 18 kts | 69° |
| 2026-05-07 02:45 | -6.11183 | 106.66672 | 37 ft | 23 kts | 67° |
| 2026-05-07 02:45 | -6.11124 | 106.66818 | 38 ft | 22 kts | 68° |
| 2026-05-07 02:45 | -6.11065 | 106.66956 | 37 ft | 19 kts | 51° |
| 2026-05-07 02:45 | -6.10971 | 106.66959 | 38 ft | 7 kts | 329° |
| 2026-05-07 02:46 | -6.10941 | 106.66922 | 38 ft | 7 kts | 302° |
| 2026-05-07 02:46 | -6.10919 | 106.66863 | 36 ft | 15 kts | 274° |
| 2026-05-07 02:46 | -6.10992 | 106.66672 | 38 ft | 56 kts | 247° |
| 2026-05-07 02:46 | -6.11225 | 106.66089 | 37 ft | 122 kts | 249° |
| 2026-05-07 02:47 | -6.11622 | 106.65110 | 42 ft | 176 kts | 245° |
| 2026-05-07 02:47 | -6.12147 | 106.63885 | 367 ft | 199 kts | 247° |
| 2026-05-07 02:47 | -6.12626 | 106.62648 | 1390 ft | 182 kts | 254° |
| 2026-05-07 02:47 | -6.12635 | 106.61330 | 1778 ft | 208 kts | 288° |
| 2026-05-07 02:48 | -6.12043 | 106.59918 | 2113 ft | 221 kts | 293° |
| 2026-05-07 02:48 | -6.11508 | 106.58510 | 2913 ft | 211 kts | 292° |
| 2026-05-07 02:48 | -6.10975 | 106.57121 | 3541 ft | 220 kts | 291° |
| 2026-05-07 02:48 | -6.10427 | 106.55603 | 3722 ft | 246 kts | 290° |
| 2026-05-07 02:49 | -6.09834 | 106.53892 | 3948 ft | 271 kts | 290° |
| 2026-05-07 02:49 | -6.09206 | 106.52062 | 4432 ft | 282 kts | 290° |
| 2026-05-07 02:49 | -6.08562 | 106.50179 | 5103 ft | 285 kts | 290° |
| 2026-05-07 02:49 | -6.07650 | 106.48455 | 5799 ft | 284 kts | 313° |
| 2026-05-07 02:50 | -6.06118 | 106.47213 | 6497 ft | 282 kts | 329° |
| 2026-05-07 02:50 | -6.04447 | 106.46159 | 7096 ft | 286 kts | 330° |
| 2026-05-07 02:50 | -6.02728 | 106.45101 | 7700 ft | 290 kts | 330° |
| 2026-05-07 02:50 | -6.00993 | 106.44035 | 8333 ft | 293 kts | 330° |
| 2026-05-07 02:51 | -5.99242 | 106.42954 | 8960 ft | 296 kts | 330° |
| 2026-05-07 02:51 | -5.97495 | 106.41871 | 9579 ft | 300 kts | 330° |
| 2026-05-07 02:51 | -5.95710 | 106.40759 | 10159 ft | 303 kts | 330° |
| 2026-05-07 02:51 | -5.93873 | 106.39614 | 10396 ft | 321 kts | 330° |
| 2026-05-07 02:52 | -5.91920 | 106.38395 | 10682 ft | 334 kts | 330° |
| 2026-05-07 02:52 | -5.89927 | 106.37148 | 11173 ft | 339 kts | 330° |
| 2026-05-07 02:52 | -5.87913 | 106.35886 | 11770 ft | 342 kts | 330° |
| 2026-05-07 02:52 | -5.85907 | 106.34629 | 12359 ft | 344 kts | 330° |
| 2026-05-07 02:53 | -5.83849 | 106.33340 | 12908 ft | 349 kts | 330° |
| 2026-05-07 02:53 | -5.81775 | 106.32040 | 13491 ft | 352 kts | 330° |
| 2026-05-07 02:53 | -5.79682 | 106.30729 | 14032 ft | 356 kts | 330° |
| 2026-05-07 02:53 | -5.77574 | 106.29409 | 14564 ft | 359 kts | 330° |
| 2026-05-07 02:54 | -5.75477 | 106.28097 | 15113 ft | 361 kts | 330° |
| 2026-05-07 02:54 | -5.73344 | 106.26744 | 15667 ft | 364 kts | 327° |
| 2026-05-07 02:54 | -5.71287 | 106.25222 | 16176 ft | 369 kts | 323° |
| 2026-05-07 02:54 | -5.69269 | 106.23590 | 16705 ft | 372 kts | 322° |
| 2026-05-07 02:55 | -5.67256 | 106.21927 | 17239 ft | 375 kts | 322° |
| 2026-05-07 02:55 | -5.65252 | 106.20280 | 17768 ft | 378 kts | 322° |
| 2026-05-07 02:55 | -5.63194 | 106.18606 | 18290 ft | 380 kts | 322° |
| 2026-05-07 02:55 | -5.61115 | 106.16929 | 18719 ft | 384 kts | 322° |
| 2026-05-07 02:56 | -5.59014 | 106.15246 | 19126 ft | 388 kts | 323° |
| 2026-05-07 02:56 | -5.56890 | 106.13548 | 19547 ft | 391 kts | 323° |
| 2026-05-07 02:56 | -5.54755 | 106.11846 | 19999 ft | 393 kts | 323° |
| 2026-05-07 02:56 | -5.52640 | 106.10159 | 20441 ft | 395 kts | 323° |
| 2026-05-07 02:57 | -5.50477 | 106.08435 | 20881 ft | 397 kts | 323° |
| 2026-05-07 02:57 | -5.48301 | 106.06700 | 21276 ft | 400 kts | 323° |
| 2026-05-07 02:57 | -5.46121 | 106.04961 | 21659 ft | 404 kts | 323° |
| 2026-05-07 02:57 | -5.43899 | 106.03191 | 22060 ft | 406 kts | 323° |
| 2026-05-07 02:58 | -5.41703 | 106.01441 | 22479 ft | 408 kts | 323° |
| 2026-05-07 02:58 | -5.39473 | 105.99667 | 22874 ft | 411 kts | 323° |
| 2026-05-07 02:58 | -5.37218 | 105.97875 | 22892 ft | 413 kts | 323° |
| 2026-05-07 02:58 | -5.34972 | 105.96089 | 22900 ft | 410 kts | 323° |
| 2026-05-07 02:59 | -5.32733 | 105.94309 | 22904 ft | 410 kts | 323° |
| 2026-05-07 02:59 | -5.30493 | 105.92528 | 22911 ft | 411 kts | 323° |
| 2026-05-07 02:59 | -5.28242 | 105.90738 | 22912 ft | 412 kts | 323° |
| 2026-05-07 02:59 | -5.25996 | 105.88951 | 22907 ft | 412 kts | 323° |
| 2026-05-07 03:00 | -5.23745 | 105.87162 | 22909 ft | 411 kts | 323° |
| 2026-05-07 03:00 | -5.21536 | 105.85405 | 22889 ft | 408 kts | 323° |
| 2026-05-07 03:00 | -5.19305 | 105.83632 | 22901 ft | 410 kts | 323° |
| 2026-05-07 03:00 | -5.17032 | 105.81885 | 22927 ft | 413 kts | 325° |
| 2026-05-07 03:01 | -5.14723 | 105.80221 | 23156 ft | 410 kts | 326° |
| 2026-05-07 03:01 | -5.12383 | 105.78576 | 23513 ft | 412 kts | 327° |
| 2026-05-07 03:01 | -5.10028 | 105.76930 | 23808 ft | 415 kts | 326° |
| 2026-05-07 03:01 | -5.07661 | 105.75271 | 24107 ft | 417 kts | 326° |
| 2026-05-07 03:02 | -5.05266 | 105.73586 | 24424 ft | 419 kts | 326° |
| 2026-05-07 03:02 | -5.02883 | 105.71901 | 24733 ft | 421 kts | 326° |
| 2026-05-07 03:02 | -5.00478 | 105.70196 | 25078 ft | 422 kts | 326° |
| 2026-05-07 03:02 | -4.98075 | 105.68489 | 25377 ft | 424 kts | 326° |
| 2026-05-07 03:03 | -4.95653 | 105.66767 | 25685 ft | 426 kts | 326° |
| 2026-05-07 03:03 | -4.93253 | 105.65061 | 25986 ft | 428 kts | 326° |
| 2026-05-07 03:03 | -4.90819 | 105.63330 | 26286 ft | 430 kts | 326° |
| 2026-05-07 03:03 | -4.88372 | 105.61590 | 26586 ft | 432 kts | 326° |
| 2026-05-07 03:04 | -4.85916 | 105.59844 | 26887 ft | 434 kts | 326° |
| 2026-05-07 03:04 | -4.83452 | 105.58093 | 27167 ft | 436 kts | 326° |
| 2026-05-07 03:04 | -4.80970 | 105.56329 | 27456 ft | 437 kts | 326° |
| 2026-05-07 03:04 | -4.78479 | 105.54560 | 27735 ft | 439 kts | 326° |
| 2026-05-07 03:05 | -4.75982 | 105.52785 | 28014 ft | 441 kts | 326° |
| 2026-05-07 03:05 | -4.73478 | 105.51006 | 28283 ft | 443 kts | 326° |
| 2026-05-07 03:05 | -4.70973 | 105.49227 | 28552 ft | 445 kts | 326° |
| 2026-05-07 03:05 | -4.68470 | 105.47449 | 28804 ft | 446 kts | 326° |
| 2026-05-07 03:06 | -4.65910 | 105.45631 | 29078 ft | 448 kts | 326° |
| 2026-05-07 03:06 | -4.63382 | 105.43836 | 29331 ft | 450 kts | 326° |
| 2026-05-07 03:06 | -4.60797 | 105.42000 | 29579 ft | 452 kts | 326° |
| 2026-05-07 03:06 | -4.58227 | 105.40175 | 29817 ft | 453 kts | 326° |
| 2026-05-07 03:07 | -4.55650 | 105.38346 | 30046 ft | 455 kts | 326° |
| 2026-05-07 03:07 | -4.53065 | 105.36510 | 30261 ft | 456 kts | 326° |
| 2026-05-07 03:07 | -4.50465 | 105.34665 | 30475 ft | 457 kts | 326° |
| 2026-05-07 03:07 | -4.47866 | 105.32820 | 30686 ft | 458 kts | 326° |
| 2026-05-07 03:08 | -4.45261 | 105.30971 | 30887 ft | 459 kts | 326° |
| 2026-05-07 03:08 | -4.42640 | 105.29111 | 31087 ft | 461 kts | 326° |
| 2026-05-07 03:08 | -4.40054 | 105.27275 | 31280 ft | 462 kts | 326° |
| 2026-05-07 03:08 | -4.37421 | 105.25407 | 31439 ft | 464 kts | 326° |
| 2026-05-07 03:09 | -4.34805 | 105.23552 | 31662 ft | 463 kts | 326° |
| 2026-05-07 03:09 | -4.32186 | 105.21693 | 32004 ft | 460 kts | 326° |
| 2026-05-07 03:09 | -4.29590 | 105.19851 | 32334 ft | 457 kts | 326° |
| 2026-05-07 03:09 | -4.26987 | 105.18005 | 32660 ft | 455 kts | 326° |
| 2026-05-07 03:10 | -4.24406 | 105.16174 | 33005 ft | 452 kts | 325° |
| 2026-05-07 03:10 | -4.21840 | 105.14353 | 33345 ft | 450 kts | 325° |
| 2026-05-07 03:10 | -4.19286 | 105.12542 | 33707 ft | 447 kts | 325° |
| 2026-05-07 03:10 | -4.16787 | 105.10769 | 34017 ft | 444 kts | 325° |
| 2026-05-07 03:11 | -4.14275 | 105.08988 | 34318 ft | 441 kts | 325° |
| 2026-05-07 03:11 | -4.11772 | 105.07214 | 34628 ft | 438 kts | 325° |
| 2026-05-07 03:11 | -4.09324 | 105.05411 | 34934 ft | 435 kts | 320° |
| 2026-05-07 03:11 | -4.07055 | 105.03407 | 35240 ft | 432 kts | 317° |
| 2026-05-07 03:12 | -4.04851 | 105.01340 | 35359 ft | 434 kts | 316° |
| 2026-05-07 03:12 | -4.02695 | 104.99275 | 35508 ft | 435 kts | 316° |
| 2026-05-07 03:12 | -4.00499 | 104.97169 | 35655 ft | 436 kts | 316° |
| 2026-05-07 03:12 | -3.98299 | 104.95069 | 35800 ft | 437 kts | 317° |
| 2026-05-07 03:13 | -3.93872 | 104.90886 | 35890 ft | 442 kts | 317° |
| 2026-05-07 03:13 | -3.89344 | 104.86641 | 35904 ft | 448 kts | 317° |
| 2026-05-07 03:14 | -3.84749 | 104.82344 | 35901 ft | 452 kts | 317° |
| 2026-05-07 03:15 | -3.77828 | 104.75873 | 35895 ft | 455 kts | 317° |
| 2026-05-07 03:15 | -3.73212 | 104.71556 | 35877 ft | 449 kts | 317° |
| 2026-05-07 03:16 | -3.68716 | 104.67352 | 35889 ft | 444 kts | 317° |
| 2026-05-07 03:16 | -3.64197 | 104.63128 | 35896 ft | 444 kts | 317° |
| 2026-05-07 03:17 | -3.59702 | 104.58926 | 35894 ft | 444 kts | 317° |
| 2026-05-07 03:17 | -3.55168 | 104.54689 | 35905 ft | 445 kts | 317° |
| 2026-05-07 03:18 | -3.50625 | 104.50444 | 35898 ft | 446 kts | 317° |
| 2026-05-07 03:18 | -3.46106 | 104.46222 | 35897 ft | 447 kts | 317° |
| 2026-05-07 03:19 | -3.41563 | 104.41978 | 35893 ft | 449 kts | 317° |
| 2026-05-07 03:19 | -3.36995 | 104.37711 | 35898 ft | 449 kts | 317° |
| 2026-05-07 03:20 | -3.32411 | 104.33430 | 35897 ft | 450 kts | 317° |
| 2026-05-07 03:20 | -3.27855 | 104.29175 | 35892 ft | 451 kts | 317° |
| 2026-05-07 03:21 | -3.23252 | 104.24877 | 35906 ft | 455 kts | 317° |
| 2026-05-07 03:21 | -3.18588 | 104.20523 | 35902 ft | 461 kts | 317° |
| 2026-05-07 03:22 | -3.13861 | 104.16111 | 35903 ft | 466 kts | 317° |
| 2026-05-07 03:22 | -3.09100 | 104.11667 | 35901 ft | 469 kts | 317° |
| 2026-05-07 03:23 | -3.04305 | 104.07192 | 35891 ft | 472 kts | 317° |
| 2026-05-07 03:23 | -2.99527 | 104.02734 | 35889 ft | 473 kts | 317° |
| 2026-05-07 03:24 | -2.94753 | 103.98279 | 35889 ft | 472 kts | 317° |
| 2026-05-07 03:24 | -2.89941 | 103.93790 | 35884 ft | 470 kts | 317° |
| 2026-05-07 03:25 | -2.85164 | 103.89334 | 35884 ft | 468 kts | 317° |
| 2026-05-07 03:25 | -2.80406 | 103.84896 | 35886 ft | 466 kts | 317° |
| 2026-05-07 03:26 | -2.75669 | 103.80479 | 35884 ft | 464 kts | 317° |
| 2026-05-07 03:26 | -2.70982 | 103.76109 | 35888 ft | 462 kts | 317° |
| 2026-05-07 03:27 | -2.66271 | 103.71716 | 35887 ft | 461 kts | 317° |
| 2026-05-07 03:27 | -2.61573 | 103.67337 | 35892 ft | 461 kts | 317° |
| 2026-05-07 03:28 | -2.56902 | 103.62983 | 35888 ft | 461 kts | 317° |
| 2026-05-07 03:28 | -2.52208 | 103.58607 | 35886 ft | 462 kts | 317° |
| 2026-05-07 03:29 | -2.47506 | 103.54225 | 35885 ft | 463 kts | 317° |
| 2026-05-07 03:29 | -2.42795 | 103.49835 | 35886 ft | 464 kts | 317° |
| 2026-05-07 03:30 | -2.38055 | 103.45416 | 35886 ft | 465 kts | 317° |
| 2026-05-07 03:30 | -2.34113 | 103.41743 | 35890 ft | 466 kts | 317° |
| 2026-05-07 03:31 | -2.28596 | 103.36598 | 35882 ft | 467 kts | 317° |
| 2026-05-07 03:31 | -2.24644 | 103.32906 | 35883 ft | 467 kts | 318° |
| 2026-05-07 03:32 | -2.19877 | 103.28452 | 35883 ft | 468 kts | 318° |
| 2026-05-07 03:32 | -2.15116 | 103.24005 | 35882 ft | 468 kts | 318° |
| 2026-05-07 03:33 | -2.10339 | 103.19542 | 35885 ft | 468 kts | 318° |
| 2026-05-07 03:33 | -2.05605 | 103.15122 | 35882 ft | 468 kts | 318° |
| 2026-05-07 03:34 | -2.00831 | 103.10663 | 35880 ft | 468 kts | 318° |
| 2026-05-07 03:34 | -1.96062 | 103.06211 | 35881 ft | 468 kts | 317° |
| 2026-05-07 03:35 | -1.91333 | 103.01796 | 35883 ft | 468 kts | 317° |
| 2026-05-07 03:35 | -1.86552 | 102.97332 | 35879 ft | 468 kts | 318° |
| 2026-05-07 03:36 | -1.81783 | 102.92880 | 35879 ft | 469 kts | 317° |
| 2026-05-07 03:36 | -1.77032 | 102.88445 | 35884 ft | 469 kts | 317° |
| 2026-05-07 03:37 | -1.72246 | 102.83977 | 35889 ft | 469 kts | 317° |
| 2026-05-07 03:37 | -1.67486 | 102.79535 | 35878 ft | 470 kts | 317° |
| 2026-05-07 03:38 | -1.62689 | 102.75057 | 35884 ft | 470 kts | 317° |
| 2026-05-07 03:38 | -1.57900 | 102.70586 | 35881 ft | 471 kts | 317° |
| 2026-05-07 03:39 | -1.53135 | 102.66140 | 35886 ft | 471 kts | 317° |
| 2026-05-07 03:39 | -1.48340 | 102.61664 | 35880 ft | 471 kts | 317° |
| 2026-05-07 03:40 | -1.43568 | 102.57207 | 35879 ft | 472 kts | 317° |
| 2026-05-07 03:40 | -1.38752 | 102.52709 | 35880 ft | 472 kts | 317° |
| 2026-05-07 03:41 | -1.33964 | 102.48237 | 35877 ft | 472 kts | 317° |
| 2026-05-07 03:41 | -1.29164 | 102.43755 | 35881 ft | 472 kts | 317° |
| 2026-05-07 03:42 | -1.24383 | 102.39290 | 35880 ft | 472 kts | 317° |
| 2026-05-07 03:42 | -1.19575 | 102.34800 | 35877 ft | 472 kts | 317° |
| 2026-05-07 03:43 | -1.14768 | 102.30312 | 35883 ft | 472 kts | 317° |
| 2026-05-07 03:43 | -1.09972 | 102.25834 | 35875 ft | 471 kts | 317° |
| 2026-05-07 03:44 | -1.05170 | 102.21350 | 35878 ft | 471 kts | 317° |
| 2026-05-07 03:44 | -1.00407 | 102.16904 | 35873 ft | 470 kts | 317° |
| 2026-05-07 03:45 | -0.95641 | 102.12454 | 35872 ft | 468 kts | 317° |
| 2026-05-07 03:45 | -0.90877 | 102.08008 | 35867 ft | 467 kts | 317° |
| 2026-05-07 03:46 | -0.86147 | 102.03592 | 35869 ft | 466 kts | 317° |
| 2026-05-07 03:46 | -0.81409 | 101.99170 | 35866 ft | 465 kts | 317° |
| 2026-05-07 03:47 | -0.76702 | 101.94776 | 35868 ft | 464 kts | 317° |
| 2026-05-07 03:47 | -0.71977 | 101.90366 | 35863 ft | 463 kts | 317° |
| 2026-05-07 03:48 | -0.67256 | 101.85960 | 35864 ft | 463 kts | 317° |
| 2026-05-07 03:48 | -0.62579 | 101.81594 | 35861 ft | 463 kts | 317° |
| 2026-05-07 03:49 | -0.57862 | 101.77191 | 35860 ft | 462 kts | 317° |
| 2026-05-07 03:49 | -0.53166 | 101.72809 | 35858 ft | 462 kts | 317° |
| 2026-05-07 03:50 | -0.48504 | 101.68458 | 35860 ft | 462 kts | 317° |
| 2026-05-07 03:50 | -0.43806 | 101.64074 | 35860 ft | 462 kts | 318° |
| 2026-05-07 03:51 | -0.39127 | 101.59708 | 35860 ft | 462 kts | 318° |
| 2026-05-07 03:51 | -0.34425 | 101.55319 | 35856 ft | 462 kts | 317° |
| 2026-05-07 03:52 | -0.29714 | 101.50923 | 35858 ft | 462 kts | 317° |
| 2026-05-07 03:52 | -0.25035 | 101.46556 | 35857 ft | 462 kts | 317° |
| 2026-05-07 03:53 | -0.20326 | 101.42163 | 35853 ft | 462 kts | 318° |
| 2026-05-07 03:53 | -0.15651 | 101.37800 | 35853 ft | 463 kts | 318° |
| 2026-05-07 03:54 | -0.10929 | 101.33393 | 35855 ft | 463 kts | 318° |
| 2026-05-07 03:54 | -0.06215 | 101.28994 | 35856 ft | 463 kts | 318° |
| 2026-05-07 03:55 | -0.01523 | 101.24616 | 35851 ft | 464 kts | 318° |
| 2026-05-07 03:55 | 0.03207 | 101.20203 | 35854 ft | 464 kts | 318° |
| 2026-05-07 03:56 | 0.07926 | 101.15799 | 35852 ft | 464 kts | 318° |
| 2026-05-07 03:56 | 0.12627 | 101.11412 | 35854 ft | 465 kts | 318° |
| 2026-05-07 03:57 | 0.17366 | 101.06990 | 35854 ft | 465 kts | 318° |
| 2026-05-07 03:57 | 0.22072 | 101.02598 | 35852 ft | 465 kts | 318° |
| 2026-05-07 03:58 | 0.26807 | 100.98180 | 35849 ft | 465 kts | 318° |
| 2026-05-07 03:58 | 0.31540 | 100.93763 | 35854 ft | 465 kts | 318° |
| 2026-05-07 03:59 | 0.36244 | 100.89373 | 35851 ft | 465 kts | 318° |
| 2026-05-07 03:59 | 0.40967 | 100.84965 | 35852 ft | 464 kts | 318° |
| 2026-05-07 04:00 | 0.45704 | 100.80545 | 35849 ft | 464 kts | 318° |
| 2026-05-07 04:00 | 0.50423 | 100.76141 | 35851 ft | 464 kts | 318° |
| 2026-05-07 04:01 | 0.55151 | 100.71728 | 35856 ft | 464 kts | 318° |
| 2026-05-07 04:01 | 0.59841 | 100.67351 | 35856 ft | 465 kts | 318° |
| 2026-05-07 04:02 | 0.64575 | 100.62933 | 35852 ft | 465 kts | 318° |
| 2026-05-07 04:02 | 0.69316 | 100.58508 | 35856 ft | 465 kts | 318° |
| 2026-05-07 04:03 | 0.74031 | 100.54107 | 35856 ft | 466 kts | 318° |
| 2026-05-07 04:03 | 0.78752 | 100.49699 | 35568 ft | 458 kts | 318° |
| 2026-05-07 04:03 | 0.81058 | 100.47546 | 35332 ft | 448 kts | 318° |
| 2026-05-07 04:04 | 0.83320 | 100.45434 | 35086 ft | 440 kts | 318° |
| 2026-05-07 04:04 | 0.85549 | 100.43352 | 34857 ft | 437 kts | 318° |
| 2026-05-07 04:04 | 0.87745 | 100.41303 | 34636 ft | 437 kts | 318° |
| 2026-05-07 04:04 | 0.89961 | 100.39235 | 34414 ft | 436 kts | 318° |
| 2026-05-07 04:05 | 0.92183 | 100.37162 | 34185 ft | 435 kts | 318° |
| 2026-05-07 04:05 | 0.94397 | 100.35095 | 33975 ft | 435 kts | 318° |
| 2026-05-07 04:05 | 0.96618 | 100.33023 | 33730 ft | 434 kts | 318° |
| 2026-05-07 04:05 | 0.98826 | 100.30961 | 33484 ft | 434 kts | 318° |
| 2026-05-07 04:06 | 1.01001 | 100.28931 | 33225 ft | 432 kts | 318° |
| 2026-05-07 04:06 | 1.03184 | 100.26892 | 32875 ft | 427 kts | 318° |
| 2026-05-07 04:06 | 1.05351 | 100.24869 | 32481 ft | 424 kts | 318° |
| 2026-05-07 04:06 | 1.07510 | 100.22853 | 32102 ft | 421 kts | 318° |
| 2026-05-07 04:07 | 1.09641 | 100.20863 | 31713 ft | 419 kts | 317° |
| 2026-05-07 04:07 | 1.11765 | 100.18880 | 31332 ft | 417 kts | 317° |
| 2026-05-07 04:07 | 1.13887 | 100.16899 | 30942 ft | 415 kts | 317° |
| 2026-05-07 04:07 | 1.15994 | 100.14932 | 30558 ft | 413 kts | 317° |
| 2026-05-07 04:08 | 1.18068 | 100.12995 | 30165 ft | 412 kts | 317° |
| 2026-05-07 04:08 | 1.20165 | 100.11038 | 29756 ft | 411 kts | 317° |
| 2026-05-07 04:08 | 1.22248 | 100.09092 | 29329 ft | 409 kts | 317° |
| 2026-05-07 04:08 | 1.24319 | 100.07158 | 28929 ft | 406 kts | 317° |
| 2026-05-07 04:09 | 1.26376 | 100.05237 | 28518 ft | 404 kts | 317° |
| 2026-05-07 04:09 | 1.28424 | 100.03325 | 28120 ft | 401 kts | 318° |
| 2026-05-07 04:09 | 1.30461 | 100.01422 | 27728 ft | 398 kts | 318° |
| 2026-05-07 04:09 | 1.32487 | 99.99530 | 27428 ft | 394 kts | 318° |
| 2026-05-07 04:10 | 1.34453 | 99.97694 | 27186 ft | 389 kts | 318° |
| 2026-05-07 04:10 | 1.36422 | 99.95855 | 26916 ft | 386 kts | 318° |
| 2026-05-07 04:10 | 1.38389 | 99.94018 | 26750 ft | 387 kts | 318° |
| 2026-05-07 04:10 | 1.40360 | 99.92178 | 26741 ft | 387 kts | 318° |
| 2026-05-07 04:11 | 1.42320 | 99.90348 | 26432 ft | 385 kts | 318° |
| 2026-05-07 04:11 | 1.44284 | 99.88515 | 25975 ft | 386 kts | 318° |
| 2026-05-07 04:11 | 1.46261 | 99.86670 | 25516 ft | 388 kts | 318° |
| 2026-05-07 04:11 | 1.48208 | 99.84851 | 25138 ft | 387 kts | 319° |
| 2026-05-07 04:12 | 1.50166 | 99.83022 | 24804 ft | 384 kts | 318° |
| 2026-05-07 04:12 | 1.52117 | 99.81198 | 24471 ft | 382 kts | 319° |
| 2026-05-07 04:12 | 1.54056 | 99.79387 | 24144 ft | 380 kts | 319° |
| 2026-05-07 04:12 | 1.55984 | 99.77586 | 23812 ft | 379 kts | 319° |
| 2026-05-07 04:13 | 1.57912 | 99.75785 | 23482 ft | 377 kts | 319° |
| 2026-05-07 04:13 | 1.59822 | 99.74000 | 23106 ft | 375 kts | 319° |
| 2026-05-07 04:13 | 1.61723 | 99.72223 | 22743 ft | 373 kts | 319° |
| 2026-05-07 04:13 | 1.63617 | 99.70453 | 22403 ft | 370 kts | 319° |
| 2026-05-07 04:14 | 1.65477 | 99.68715 | 22044 ft | 368 kts | 319° |
| 2026-05-07 04:14 | 1.67348 | 99.66966 | 21690 ft | 366 kts | 319° |
| 2026-05-07 04:14 | 1.69202 | 99.65233 | 21348 ft | 365 kts | 319° |
| 2026-05-07 04:14 | 1.71054 | 99.63502 | 21012 ft | 363 kts | 319° |
| 2026-05-07 04:15 | 1.72894 | 99.61783 | 20681 ft | 360 kts | 319° |
| 2026-05-07 04:15 | 1.74720 | 99.60075 | 20347 ft | 359 kts | 319° |
| 2026-05-07 04:15 | 1.76542 | 99.58373 | 20019 ft | 357 kts | 319° |
| 2026-05-07 04:15 | 1.78313 | 99.56636 | 19675 ft | 356 kts | 314° |
| 2026-05-07 04:16 | 1.79910 | 99.54780 | 19367 ft | 355 kts | 311° |
| 2026-05-07 04:16 | 1.81454 | 99.52862 | 19056 ft | 353 kts | 310° |
| 2026-05-07 04:16 | 1.82987 | 99.50940 | 18726 ft | 352 kts | 310° |
| 2026-05-07 04:16 | 1.84516 | 99.49038 | 18421 ft | 350 kts | 310° |
| 2026-05-07 04:17 | 1.86031 | 99.47173 | 18125 ft | 348 kts | 311° |
| 2026-05-07 04:17 | 1.87563 | 99.45302 | 17784 ft | 346 kts | 311° |
| 2026-05-07 04:17 | 1.89085 | 99.43453 | 17470 ft | 344 kts | 311° |
| 2026-05-07 04:17 | 1.90116 | 99.42203 | 17251 ft | 342 kts | 311° |
| 2026-05-07 04:18 | 1.92121 | 99.39776 | 16812 ft | 341 kts | 311° |
| 2026-05-07 04:18 | 1.93117 | 99.38570 | 16607 ft | 339 kts | 311° |
| 2026-05-07 04:18 | 1.94621 | 99.36750 | 16299 ft | 337 kts | 311° |
| 2026-05-07 04:18 | 1.96114 | 99.34944 | 15986 ft | 336 kts | 311° |
| 2026-05-07 04:19 | 1.97603 | 99.33142 | 15673 ft | 334 kts | 311° |
| 2026-05-07 04:19 | 1.99059 | 99.31380 | 15374 ft | 332 kts | 311° |
| 2026-05-07 04:19 | 2.01042 | 99.28979 | 14710 ft | 339 kts | 311° |
| 2026-05-07 04:19 | 2.02042 | 99.27766 | 14368 ft | 343 kts | 310° |
| 2026-05-07 04:20 | 2.03586 | 99.25946 | 13820 ft | 342 kts | 317° |
| 2026-05-07 04:20 | 2.05568 | 99.24717 | 13186 ft | 335 kts | 346° |
| 2026-05-07 04:20 | 2.07850 | 99.24612 | 12590 ft | 327 kts | 15° |
| 2026-05-07 04:21 | 2.11796 | 99.26672 | 11467 ft | 319 kts | 30° |
| 2026-05-07 04:21 | 2.13747 | 99.27652 | 10939 ft | 317 kts | 25° |
| 2026-05-07 04:21 | 2.15741 | 99.28443 | 11034 ft | 294 kts | 21° |
| 2026-05-07 04:21 | 2.17647 | 99.29043 | 10913 ft | 280 kts | 17° |
| 2026-05-07 04:22 | 2.19497 | 99.29476 | 10829 ft | 265 kts | 13° |
| 2026-05-07 04:22 | 2.21261 | 99.29794 | 10603 ft | 260 kts | 11° |
| 2026-05-07 04:22 | 2.23047 | 99.29865 | 10344 ft | 253 kts | 346° |
| 2026-05-07 04:22 | 2.24457 | 99.28950 | 10257 ft | 240 kts | 305° |
| 2026-05-07 04:23 | 2.24913 | 99.27432 | 10136 ft | 223 kts | 261° |
| 2026-05-07 04:23 | 2.24317 | 99.26118 | 9954 ft | 207 kts | 230° |
| 2026-05-07 04:23 | 2.23714 | 99.24825 | 9438 ft | 213 kts | 268° |
| 2026-05-07 04:23 | 2.24037 | 99.23403 | 9164 ft | 206 kts | 287° |
| 2026-05-07 04:24 | 2.24449 | 99.22029 | 8762 ft | 206 kts | 285° |
| 2026-05-07 04:24 | 2.24842 | 99.20648 | 8421 ft | 205 kts | 284° |
| 2026-05-07 04:24 | 2.25082 | 99.19288 | 8160 ft | 197 kts | 274° |
| 2026-05-07 04:24 | 2.25227 | 99.17932 | 7830 ft | 193 kts | 275° |
| 2026-05-07 04:25 | 2.25346 | 99.16613 | 7524 ft | 188 kts | 273° |
| 2026-05-07 04:25 | 2.25447 | 99.15342 | 7309 ft | 183 kts | 272° |
| 2026-05-07 04:25 | 2.25543 | 99.14032 | 7230 ft | 195 kts | 273° |
| 2026-05-07 04:25 | 2.25647 | 99.12686 | 7010 ft | 190 kts | 273° |
| 2026-05-07 04:26 | 2.25747 | 99.11379 | 6751 ft | 185 kts | 273° |
| 2026-05-07 04:26 | 2.25845 | 99.10100 | 6500 ft | 185 kts | 273° |
| 2026-05-07 04:26 | 2.25942 | 99.08808 | 6273 ft | 188 kts | 273° |
| 2026-05-07 04:26 | 2.26034 | 99.07534 | 5990 ft | 181 kts | 272° |
| 2026-05-07 04:27 | 2.26134 | 99.06307 | 5758 ft | 175 kts | 274° |
| 2026-05-07 04:27 | 2.26136 | 99.05081 | 5404 ft | 178 kts | 263° |
| 2026-05-07 04:27 | 2.25975 | 99.03852 | 5097 ft | 177 kts | 258° |
| 2026-05-07 04:27 | 2.25804 | 99.02654 | 4923 ft | 171 kts | 265° |
| 2026-05-07 04:28 | 2.25808 | 99.01487 | 4733 ft | 166 kts | 272° |
| 2026-05-07 04:28 | 2.25889 | 99.00353 | 4584 ft | 160 kts | 271° |
| 2026-05-07 04:28 | 2.25900 | 99.00189 | 4577 ft | 0 kts | 272° |